Terminal Aerodrome Forecast
Issued by NWS

Home | Current Version | Previous Version | Text Only | Print | Product List | Glossary On
Versions: 1 2 3 4 5 6 7 8 9 10 11 12 13 14
000
FTUS43 KPAH 222300
TAFCGI
TAF
KCGI 222320Z 2300/2324 03006KT P6SM SKC
     FM230200 03002KT P6SM SKC
     FM230900 00000KT 5SM BR SCT250
     FM231400 06006KT P6SM SKC=

USA.gov is the U.S. government's official web portal to all federal, state and local government web resources and services.